createdAt,value
2023-04-07T00:00:04.905Z,17.86
2023-04-07T00:02:39.351Z,17.83
2023-04-07T00:05:06.826Z,17.82
2023-04-07T00:07:39.462Z,17.81
2023-04-07T00:10:14.785Z,17.84
2023-04-07T00:12:42.078Z,17.85
2023-04-07T00:15:09.795Z,17.83
2023-04-07T00:17:36.917Z,17.75
2023-04-07T00:20:04.473Z,17.77
2023-04-07T00:22:31.658Z,17.77
2023-04-07T00:25:00.874Z,17.75
2023-04-07T00:27:28.052Z,17.76
2023-04-07T00:29:58.434Z,17.71
2023-04-07T00:32:28.475Z,17.66
2023-04-07T00:35:00.293Z,17.60
2023-04-07T00:37:29.659Z,17.59
2023-04-07T00:39:59.853Z,17.57
2023-04-07T00:42:27.177Z,17.52
2023-04-07T00:44:54.868Z,17.53
2023-04-07T00:47:22.044Z,17.51
2023-04-07T00:49:49.098Z,17.40
2023-04-07T00:52:16.922Z,17.43
2023-04-07T00:54:48.985Z,17.38
2023-04-07T00:57:22.454Z,17.34
2023-04-07T00:59:52.380Z,17.38
2023-04-07T01:02:44.886Z,17.31
2023-04-07T01:05:22.359Z,17.29
2023-04-07T01:08:06.471Z,17.25
2023-04-07T01:10:52.509Z,17.26
2023-04-07T01:13:30.414Z,17.22
2023-04-07T01:16:15.609Z,17.19
2023-04-07T01:18:51.543Z,17.23
2023-04-07T01:21:20.226Z,17.18
2023-04-07T01:24:16.271Z,17.13
2023-04-07T01:26:50.674Z,17.16
2023-04-07T01:29:48.142Z,17.18
2023-04-07T01:32:21.171Z,17.15
2023-04-07T01:35:01.623Z,17.10
2023-04-07T01:37:35.072Z,17.12
2023-04-07T01:40:12.679Z,17.03
2023-04-07T01:42:44.024Z,17.03
2023-04-07T01:45:22.100Z,17.08
2023-04-07T01:48:10.576Z,17.09
2023-04-07T01:50:41.126Z,17.04
2023-04-07T01:53:14.158Z,17.00
2023-04-07T01:55:43.530Z,17.00
2023-04-07T01:58:13.783Z,16.95
2023-04-07T02:00:43.637Z,16.95
2023-04-07T02:03:23.508Z,16.83
2023-04-07T02:05:58.214Z,16.92
2023-04-07T02:08:32.244Z,16.92
2023-04-07T02:11:03.954Z,16.94
2023-04-07T02:13:37.886Z,16.93
2023-04-07T02:16:12.732Z,16.91
2023-04-07T02:18:42.102Z,16.80
2023-04-07T02:21:09.489Z,16.87
2023-04-07T02:23:40.092Z,16.84
2023-04-07T02:26:07.548Z,16.70
2023-04-07T02:28:34.679Z,16.82
2023-04-07T02:31:01.918Z,16.81
2023-04-07T02:33:28.935Z,16.76
2023-04-07T02:35:56.158Z,16.83
2023-04-07T02:38:23.287Z,16.83
2023-04-07T02:40:50.643Z,16.84
2023-04-07T02:43:20.579Z,16.83
2023-04-07T02:45:47.778Z,16.81
2023-04-07T02:48:14.845Z,16.78
2023-04-07T02:50:43.498Z,16.77
2023-04-07T02:53:13.154Z,16.71
2023-04-07T02:55:40.517Z,16.72
2023-04-07T02:58:07.737Z,16.66
2023-04-07T03:00:39.507Z,16.65
2023-04-07T03:03:14.051Z,16.62
2023-04-07T03:05:46.733Z,16.63
2023-04-07T03:08:13.873Z,16.62
2023-04-07T03:10:41.165Z,16.59
2023-04-07T03:13:16.757Z,16.56
2023-04-07T03:15:44.436Z,16.54
2023-04-07T03:18:12.038Z,16.52
2023-04-07T03:20:42.633Z,16.47
2023-04-07T03:23:12.207Z,16.47
2023-04-07T03:25:39.374Z,16.47
2023-04-07T03:28:07.098Z,16.44
2023-04-07T03:30:37.944Z,16.38
2023-04-07T03:33:05.589Z,16.35
2023-04-07T03:35:33.350Z,16.32
2023-04-07T03:38:00.591Z,16.34
2023-04-07T03:40:27.851Z,16.31
2023-04-07T03:42:54.996Z,16.32
2023-04-07T03:45:22.509Z,16.28
2023-04-07T03:47:52.164Z,16.29
2023-04-07T03:50:22.361Z,16.25
2023-04-07T03:53:00.978Z,16.26
2023-04-07T03:55:31.389Z,16.24
2023-04-07T03:58:05.015Z,16.17
2023-04-07T04:00:35.286Z,16.19
2023-04-07T04:03:11.664Z,16.17
2023-04-07T04:05:51.394Z,16.16
2023-04-07T04:08:31.215Z,16.15
2023-04-07T04:11:03.998Z,16.09
2023-04-07T04:13:43.082Z,16.03
2023-04-07T04:16:18.473Z,16.03
2023-04-07T04:18:51.660Z,16.02
2023-04-07T04:21:27.908Z,16.08
2023-04-07T04:23:57.632Z,16.06
2023-04-07T04:26:29.995Z,16.04
2023-04-07T04:29:03.645Z,16.08
2023-04-07T04:31:39.261Z,16.05
2023-04-07T04:34:12.009Z,16.00
2023-04-07T04:36:42.813Z,16.08
2023-04-07T04:39:14.699Z,16.05
2023-04-07T04:41:45.242Z,16.05
2023-04-07T04:44:13.382Z,16.01
2023-04-07T04:46:44.755Z,15.98
2023-04-07T04:49:16.945Z,15.95
2023-04-07T04:51:49.847Z,15.83
2023-04-07T04:54:25.737Z,15.92
2023-04-07T04:56:58.367Z,15.90
2023-04-07T04:59:27.338Z,15.92
2023-04-07T05:02:01.881Z,15.90
2023-04-07T05:04:33.903Z,15.89
2023-04-07T05:07:26.841Z,15.82
2023-04-07T05:10:14.696Z,15.76
2023-04-07T05:12:54.970Z,15.76
2023-04-07T05:15:24.808Z,15.64
2023-04-07T05:17:56.267Z,15.60
2023-04-07T05:20:30.426Z,15.70
2023-04-07T05:23:07.543Z,15.59
2023-04-07T05:25:38.811Z,15.65
2023-04-07T05:28:17.155Z,15.63
2023-04-07T05:30:49.651Z,15.61
2023-04-07T05:33:20.578Z,15.65
2023-04-07T05:35:57.197Z,15.68
2023-04-07T05:41:22.178Z,15.67
2023-04-07T05:43:52.127Z,15.68
2023-04-07T05:46:22.424Z,15.68
2023-04-07T05:49:19.044Z,15.64
2023-04-07T05:51:53.778Z,15.64
2023-04-07T05:54:32.735Z,15.60
2023-04-07T05:57:07.140Z,15.63
2023-04-07T05:59:38.999Z,15.65
2023-04-07T06:02:15.364Z,15.61
2023-04-07T06:04:46.440Z,15.62
2023-04-07T06:07:16.864Z,15.62
2023-04-07T06:09:44.121Z,15.63
2023-04-07T06:12:12.510Z,15.61
2023-04-07T06:14:40.000Z,15.63
2023-04-07T06:17:07.226Z,15.69
2023-04-07T06:19:36.978Z,15.67
2023-04-07T06:22:05.512Z,15.61
2023-04-07T06:24:35.386Z,15.63
2023-04-07T06:27:04.090Z,15.62
2023-04-07T06:29:39.250Z,15.62
2023-04-07T06:32:07.023Z,15.61
2023-04-07T06:34:36.569Z,15.56
2023-04-07T06:37:06.984Z,15.61
2023-04-07T06:39:45.586Z,15.60
2023-04-07T06:42:12.667Z,15.62
2023-04-07T06:44:50.222Z,15.57
2023-04-07T06:47:17.427Z,15.57
2023-04-07T06:49:45.281Z,15.54
2023-04-07T06:52:12.602Z,15.51
2023-04-07T06:54:39.961Z,15.61
2023-04-07T06:57:12.026Z,15.58
2023-04-07T06:59:39.588Z,15.62
2023-04-07T07:02:09.808Z,15.68
2023-04-07T07:04:42.112Z,15.75
2023-04-07T07:07:09.314Z,15.73
2023-04-07T07:09:37.103Z,15.75
2023-04-07T07:12:04.482Z,15.62
2023-04-07T07:14:31.551Z,15.80
2023-04-07T07:16:58.831Z,15.88
2023-04-07T07:19:26.744Z,15.87
2023-04-07T07:21:53.965Z,15.87
2023-04-07T07:24:26.515Z,15.89
2023-04-07T07:26:56.510Z,16.12
2023-04-07T07:29:29.063Z,16.23
2023-04-07T07:31:56.487Z,16.38
2023-04-07T07:34:26.435Z,16.43
2023-04-07T07:36:56.163Z,16.58
2023-04-07T07:39:23.314Z,16.63
2023-04-07T07:41:57.529Z,16.71
2023-04-07T07:44:27.489Z,16.79
2023-04-07T07:46:54.710Z,16.83
2023-04-07T07:49:23.370Z,16.84
2023-04-07T07:51:50.882Z,16.98
2023-04-07T07:54:23.930Z,17.10
2023-04-07T07:56:56.252Z,17.05
2023-04-07T07:59:23.454Z,17.31
2023-04-07T08:01:52.770Z,17.41
2023-04-07T08:04:26.575Z,17.53
2023-04-07T08:06:59.749Z,17.53
2023-04-07T08:09:27.503Z,17.57
2023-04-07T08:11:54.592Z,17.79
2023-04-07T08:14:21.644Z,17.96
2023-04-07T08:16:48.791Z,18.10
2023-04-07T08:19:16.139Z,18.35
2023-04-07T08:21:45.080Z,18.63
2023-04-07T08:24:12.266Z,18.94
2023-04-07T08:26:39.505Z,19.08
2023-04-07T08:29:06.600Z,19.53
2023-04-07T08:31:34.408Z,19.86
2023-04-07T08:34:01.606Z,20.07
2023-04-07T08:36:29.107Z,20.32
2023-04-07T08:38:56.391Z,20.61
2023-04-07T08:41:41.417Z,20.94
2023-04-07T08:44:09.779Z,21.02
2023-04-07T08:46:41.642Z,21.09
2023-04-07T08:49:13.804Z,21.36
2023-04-07T08:51:51.527Z,21.26
2023-04-07T08:54:21.785Z,21.64
2023-04-07T08:56:51.844Z,22.02
2023-04-07T08:59:26.997Z,21.69
2023-04-07T09:01:59.691Z,21.39
2023-04-07T09:04:28.061Z,21.50
2023-04-07T09:06:55.118Z,21.47
2023-04-07T09:09:22.768Z,21.44
2023-04-07T09:11:53.229Z,21.64
2023-04-07T09:14:21.872Z,21.51
2023-04-07T09:16:51.386Z,21.20
2023-04-07T09:19:27.560Z,21.45
2023-04-07T09:21:54.766Z,21.65
2023-04-07T09:24:27.310Z,21.64
2023-04-07T09:27:17.040Z,21.58
2023-04-07T09:29:47.819Z,21.49
2023-04-07T09:32:37.425Z,21.96
2023-04-07T09:35:06.905Z,22.71
2023-04-07T09:37:34.174Z,22.27
2023-04-07T09:40:01.966Z,21.75
2023-04-07T09:42:33.661Z,22.22
2023-04-07T09:45:08.576Z,21.85
2023-04-07T09:47:36.181Z,22.04
2023-04-07T09:50:07.273Z,22.33
2023-04-07T09:53:03.445Z,22.16
2023-04-07T09:55:55.834Z,21.86
2023-04-07T09:59:00.900Z,22.09
2023-04-07T10:04:38.044Z,22.11
2023-04-07T10:07:20.109Z,21.90
2023-04-07T10:10:12.982Z,22.30
2023-04-07T10:12:53.755Z,22.27
2023-04-07T10:15:52.145Z,22.41
2023-04-07T10:18:41.331Z,22.67
2023-04-07T10:21:19.996Z,22.69
2023-04-07T10:24:22.654Z,22.48
2023-04-07T10:27:03.627Z,22.63
2023-04-07T10:29:43.570Z,22.49
2023-04-07T10:32:15.419Z,22.97
2023-04-07T10:35:03.405Z,22.86
2023-04-07T10:37:34.924Z,22.45
2023-04-07T10:40:24.287Z,22.38
2023-04-07T10:42:56.690Z,22.68
2023-04-07T10:46:21.695Z,22.80
2023-04-07T10:49:18.810Z,23.29
2023-04-07T10:52:18.058Z,23.18
2023-04-07T10:55:14.060Z,23.46
2023-04-07T10:58:23.538Z,23.10
2023-04-07T11:04:09.298Z,23.46
2023-04-07T11:09:23.556Z,23.54
2023-04-07T11:11:56.238Z,23.56
2023-04-07T11:14:37.780Z,23.25
2023-04-07T11:17:25.089Z,22.92
2023-04-07T11:20:00.958Z,23.23
2023-04-07T11:22:51.470Z,23.21
2023-04-07T11:25:29.083Z,23.54
2023-04-07T11:28:10.539Z,24.04
2023-04-07T11:30:44.620Z,24.12
2023-04-07T11:33:22.369Z,24.26
2023-04-07T11:36:03.551Z,23.95
2023-04-07T11:38:38.958Z,23.84
2023-04-07T11:41:15.789Z,23.67
2023-04-07T11:43:50.471Z,24.07
2023-04-07T11:46:21.891Z,23.74
2023-04-07T11:49:10.898Z,24.01
2023-04-07T11:51:47.338Z,24.02
2023-04-07T11:54:16.277Z,24.37
2023-04-07T11:56:47.863Z,23.94
2023-04-07T11:59:25.422Z,23.60
2023-04-07T12:01:56.289Z,23.56
2023-04-07T12:04:25.308Z,23.94
2023-04-07T12:06:55.574Z,24.17
2023-04-07T12:09:32.699Z,24.09
2023-04-07T12:12:00.912Z,23.66
2023-04-07T12:14:29.839Z,23.70
2023-04-07T12:17:02.325Z,24.82
2023-04-07T12:19:37.998Z,24.59
2023-04-07T12:22:05.372Z,24.84
2023-04-07T12:24:35.646Z,24.31
2023-04-07T12:27:05.578Z,24.23
2023-04-07T12:29:36.453Z,24.17
2023-04-07T12:32:06.041Z,24.14
2023-04-07T12:34:36.714Z,24.33
2023-04-07T12:37:04.819Z,24.07
2023-04-07T12:39:32.649Z,24.57
2023-04-07T12:42:03.518Z,24.65
2023-04-07T12:44:38.523Z,24.14
2023-04-07T12:47:08.771Z,24.68
2023-04-07T12:49:41.386Z,24.30
2023-04-07T12:52:11.710Z,24.71
2023-04-07T12:54:43.466Z,24.09
2023-04-07T12:57:18.919Z,24.52
2023-04-07T12:59:57.147Z,24.49
2023-04-07T13:02:31.079Z,24.60
2023-04-07T13:05:01.270Z,24.30
2023-04-07T13:07:40.428Z,24.49
2023-04-07T13:10:13.060Z,24.67
2023-04-07T13:12:44.423Z,24.24
2023-04-07T13:15:13.322Z,24.81
2023-04-07T13:17:55.852Z,24.57
2023-04-07T13:20:30.599Z,24.36
2023-04-07T13:23:07.686Z,24.75
2023-04-07T13:25:41.913Z,23.92
2023-04-07T13:28:09.303Z,24.13
2023-04-07T13:30:42.778Z,23.86
2023-04-07T13:33:10.078Z,24.27
2023-04-07T13:35:39.982Z,23.74
2023-04-07T13:38:07.228Z,23.89
2023-04-07T13:40:37.266Z,23.51
2023-04-07T13:43:06.664Z,23.72
2023-04-07T13:45:34.094Z,23.27
2023-04-07T13:48:02.404Z,23.69
2023-04-07T13:50:29.629Z,23.90
2023-04-07T13:52:56.769Z,24.37
2023-04-07T13:55:26.972Z,23.82
2023-04-07T13:57:54.154Z,24.18
2023-04-07T14:00:21.482Z,24.43
2023-04-07T14:02:50.248Z,24.16
2023-04-07T14:05:20.151Z,23.89
2023-04-07T14:07:50.989Z,23.49
2023-04-07T14:10:20.685Z,23.81
2023-04-07T14:12:48.711Z,22.43
2023-04-07T14:15:18.344Z,23.27
2023-04-07T14:17:45.642Z,23.47
2023-04-07T14:20:15.949Z,23.69
2023-04-07T14:22:43.450Z,23.85
2023-04-07T14:25:11.846Z,23.91
2023-04-07T14:27:40.599Z,23.44
2023-04-07T14:30:08.536Z,22.55
2023-04-07T14:32:36.808Z,22.56
2023-04-07T14:35:04.105Z,22.12
2023-04-07T14:37:36.194Z,22.48
2023-04-07T14:40:05.320Z,22.36
2023-04-07T14:42:33.579Z,22.21
2023-04-07T14:45:02.209Z,22.74
2023-04-07T14:47:30.692Z,22.25
2023-04-07T14:50:00.366Z,21.79
2023-04-07T14:52:36.231Z,22.12
2023-04-07T14:55:03.522Z,21.42
2023-04-07T14:57:30.953Z,21.23
2023-04-07T15:00:01.224Z,21.28
2023-04-07T15:02:35.507Z,20.88
2023-04-07T15:05:05.171Z,21.13
2023-04-07T15:07:32.401Z,21.10
2023-04-07T15:10:04.310Z,21.35
2023-04-07T15:12:34.898Z,21.44
2023-04-07T15:17:44.845Z,21.71
2023-04-07T15:20:13.632Z,21.62
2023-04-07T15:22:41.099Z,20.79
2023-04-07T15:25:11.502Z,22.16
2023-04-07T15:27:50.078Z,21.21
2023-04-07T15:30:20.047Z,21.23
2023-04-07T15:33:03.930Z,21.94
2023-04-07T15:35:36.646Z,21.85
2023-04-07T15:38:05.723Z,21.40
2023-04-07T15:40:44.637Z,21.23
2023-04-07T15:43:15.288Z,21.04
2023-04-07T15:45:48.310Z,20.71
2023-04-07T15:48:18.156Z,20.20
2023-04-07T15:50:47.918Z,20.55
2023-04-07T15:53:15.323Z,21.18
2023-04-07T15:55:44.439Z,20.94
2023-04-07T15:58:18.535Z,20.92
2023-04-07T16:00:45.971Z,20.69
2023-04-07T16:03:13.531Z,20.33
2023-04-07T16:05:46.748Z,21.17
2023-04-07T16:08:22.625Z,21.64
2023-04-07T16:10:53.108Z,21.65
2023-04-07T16:13:20.663Z,20.93
2023-04-07T16:18:41.114Z,21.32
2023-04-07T16:21:12.853Z,21.00
2023-04-07T16:23:40.015Z,20.77
2023-04-07T16:26:09.589Z,21.03
2023-04-07T16:28:39.213Z,21.03
2023-04-07T16:31:09.585Z,21.16
2023-04-07T16:36:18.032Z,20.78
2023-04-07T16:38:46.994Z,20.98
2023-04-07T16:41:20.578Z,21.02
2023-04-07T16:43:47.769Z,20.90
2023-04-07T16:46:15.085Z,20.49
2023-04-07T16:48:42.318Z,20.73
2023-04-07T16:51:21.064Z,20.44
2023-04-07T16:53:49.347Z,20.59
2023-04-07T16:56:24.864Z,20.65
2023-04-07T16:58:56.741Z,20.68
2023-04-07T17:01:25.220Z,21.04
2023-04-07T17:03:52.774Z,20.78
2023-04-07T17:06:22.023Z,20.56
2023-04-07T17:08:49.526Z,20.73
2023-04-07T17:11:16.806Z,20.73
2023-04-07T17:13:44.028Z,19.97
2023-04-07T17:16:14.962Z,20.08
2023-04-07T17:18:44.127Z,20.06
2023-04-07T17:21:11.554Z,20.00
2023-04-07T17:23:41.640Z,19.80
2023-04-07T17:26:08.855Z,20.09
2023-04-07T17:28:36.076Z,19.87
2023-04-07T17:31:03.343Z,19.69
2023-04-07T17:33:33.691Z,19.97
2023-04-07T17:36:06.507Z,20.31
2023-04-07T17:38:33.745Z,20.03
2023-04-07T17:41:07.353Z,20.26
2023-04-07T17:43:36.962Z,20.56
2023-04-07T17:46:05.001Z,20.31
2023-04-07T17:48:32.674Z,20.12
2023-04-07T17:51:00.233Z,20.34
2023-04-07T17:53:27.845Z,20.43
2023-04-07T17:55:55.171Z,20.74
2023-04-07T17:58:22.509Z,20.53
2023-04-07T18:00:51.117Z,20.31
2023-04-07T18:03:21.293Z,20.63
2023-04-07T18:05:51.556Z,20.60
2023-04-07T18:08:21.854Z,20.30
2023-04-07T18:10:50.379Z,20.53
2023-04-07T18:13:19.367Z,20.37
2023-04-07T18:15:55.525Z,20.31
2023-04-07T18:18:22.873Z,20.10
2023-04-07T18:20:52.752Z,20.33
2023-04-07T18:23:22.548Z,19.61
2023-04-07T18:25:52.730Z,19.94
2023-04-07T18:28:21.763Z,19.83
2023-04-07T18:30:49.101Z,20.27
2023-04-07T18:33:17.256Z,20.12
2023-04-07T18:35:44.543Z,20.31
2023-04-07T18:38:11.753Z,20.43
2023-04-07T18:40:38.745Z,20.43
2023-04-07T18:43:08.622Z,20.28
2023-04-07T18:45:38.126Z,19.95
2023-04-07T18:48:08.339Z,20.11
2023-04-07T18:50:35.911Z,20.34
2023-04-07T18:53:06.265Z,20.50
2023-04-07T18:55:34.018Z,19.74
2023-04-07T18:58:01.347Z,20.11
2023-04-07T19:00:29.226Z,19.78
2023-04-07T19:02:56.798Z,20.23
2023-04-07T19:05:27.640Z,20.18
2023-04-07T19:07:57.973Z,20.39
2023-04-07T19:10:33.888Z,20.02
2023-04-07T19:13:04.851Z,20.06
2023-04-07T19:15:34.632Z,20.24
2023-04-07T19:18:02.557Z,19.94
2023-04-07T19:20:33.989Z,19.88
2023-04-07T19:23:02.172Z,19.86
2023-04-07T19:25:33.702Z,20.19
2023-04-07T19:28:01.307Z,20.28
2023-04-07T19:30:28.517Z,20.08
2023-04-07T19:32:57.392Z,20.06
2023-04-07T19:35:27.726Z,19.84
2023-04-07T19:37:56.147Z,19.85
2023-04-07T19:40:23.796Z,20.06
2023-04-07T19:42:51.204Z,19.74
2023-04-07T19:45:18.729Z,19.26
2023-04-07T19:47:50.799Z,19.82
2023-04-07T19:50:18.252Z,19.79
2023-04-07T19:52:45.858Z,19.63
2023-04-07T19:55:14.300Z,19.63
2023-04-07T19:57:44.434Z,19.47
2023-04-07T20:00:12.033Z,19.38
2023-04-07T20:02:51.193Z,19.28
2023-04-07T20:05:19.974Z,19.15
2023-04-07T20:07:47.501Z,19.25
2023-04-07T20:10:18.318Z,19.14
2023-04-07T20:12:48.805Z,19.19
2023-04-07T20:15:17.612Z,18.95
2023-04-07T20:17:45.871Z,18.86
2023-04-07T20:20:18.219Z,18.96
2023-04-07T20:22:48.371Z,19.13
2023-04-07T20:25:16.663Z,19.29
2023-04-07T20:27:50.214Z,19.31
2023-04-07T20:30:18.181Z,19.33
2023-04-07T20:32:49.535Z,19.58
2023-04-07T20:35:19.465Z,19.67
2023-04-07T20:37:47.054Z,19.68
2023-04-07T20:40:14.566Z,19.80
2023-04-07T20:42:42.405Z,19.73
2023-04-07T20:45:14.418Z,19.79
2023-04-07T20:47:42.301Z,19.77
2023-04-07T20:50:11.044Z,19.78
2023-04-07T20:52:40.670Z,19.87
2023-04-07T20:55:08.755Z,19.72
2023-04-07T20:57:36.771Z,19.78
2023-04-07T21:00:12.719Z,19.84
2023-04-07T21:02:40.445Z,19.86
2023-04-07T21:05:12.437Z,19.91
2023-04-07T21:07:39.635Z,19.75
2023-04-07T21:10:10.156Z,19.92
2023-04-07T21:12:39.269Z,19.92
2023-04-07T21:15:10.171Z,19.83
2023-04-07T21:17:39.626Z,19.77
2023-04-07T21:20:08.145Z,19.76
2023-04-07T21:22:39.898Z,19.72
2023-04-07T21:25:07.842Z,19.51
2023-04-07T21:27:38.473Z,19.64
2023-04-07T21:30:08.062Z,19.56
2023-04-07T21:32:39.267Z,19.50
2023-04-07T21:35:25.536Z,19.63
2023-04-07T21:37:55.252Z,19.47
2023-04-07T21:40:30.048Z,19.59
2023-04-07T21:43:04.289Z,19.54
2023-04-07T21:45:45.339Z,19.53
2023-04-07T21:48:22.822Z,19.49
2023-04-07T21:50:58.943Z,19.26
2023-04-07T21:53:27.963Z,19.12
2023-04-07T21:56:00.574Z,19.13
2023-04-07T21:58:30.695Z,18.70
2023-04-07T22:01:01.056Z,19.06
2023-04-07T22:03:29.965Z,19.04
2023-04-07T22:06:16.912Z,19.08
2023-04-07T22:08:58.305Z,19.24
2023-04-07T22:11:28.626Z,19.08
2023-04-07T22:13:58.594Z,18.96
2023-04-07T22:16:26.002Z,19.11
2023-04-07T22:18:53.214Z,18.92
2023-04-07T22:21:20.685Z,18.96
2023-04-07T22:23:48.664Z,18.94
2023-04-07T22:26:20.290Z,18.93
2023-04-07T22:28:49.752Z,18.73
2023-04-07T22:31:20.008Z,18.95
2023-04-07T22:33:52.094Z,18.68
2023-04-07T22:36:20.120Z,18.90
2023-04-07T22:38:47.926Z,19.06
2023-04-07T22:41:15.543Z,19.11
2023-04-07T22:43:42.789Z,19.17
2023-04-07T22:46:10.170Z,19.22
2023-04-07T22:48:40.613Z,19.27
2023-04-07T22:51:07.928Z,19.32
2023-04-07T22:53:35.365Z,19.32
2023-04-07T22:56:02.882Z,19.31
2023-04-07T22:58:30.052Z,19.32
2023-04-07T23:01:05.047Z,19.32
2023-04-07T23:03:32.598Z,19.32
2023-04-07T23:06:01.443Z,19.31
2023-04-07T23:08:28.682Z,19.29
2023-04-07T23:10:55.933Z,19.26
2023-04-07T23:13:25.775Z,19.24
2023-04-07T23:15:53.573Z,19.25
2023-04-07T23:18:23.172Z,19.26
2023-04-07T23:20:56.153Z,19.23
2023-04-07T23:23:26.041Z,19.17
2023-04-07T23:25:56.231Z,19.16
2023-04-07T23:28:24.991Z,19.14
2023-04-07T23:30:54.337Z,19.14
2023-04-07T23:33:22.029Z,19.10
2023-04-07T23:35:49.416Z,19.13
2023-04-07T23:38:20.298Z,19.15
2023-04-07T23:40:53.952Z,19.14
2023-04-07T23:43:20.950Z,19.07
2023-04-07T23:45:48.316Z,19.03
2023-04-07T23:48:18.751Z,19.04
2023-04-07T23:50:51.568Z,18.98
2023-04-07T23:53:21.396Z,19.01
2023-04-07T23:55:50.775Z,19.02
2023-04-07T23:58:18.048Z,19.00
